Terminal Aerodrome Forecast
Issued by NWS

Home | Current Version | Previous Version | Text Only | Print | Product List | Glossary On
Versions: 1 2 3 4 5 6 7 8 9 10 11 12 13
000
FTAK31 PAJN 021700
TAFAKT
TAF
PAKT 021722Z 0218/0318 32010KT P6SM SCT150
     FM030300 14006KT P6SM SCT040 BKN080
      AMD LTD TO CLD VIS AND WIND 0306/0315=

USA.gov is the U.S. government's official web portal to all federal, state and local government web resources and services.